Milton Mills, New Hampshire
Current Conditions -  °F | °C
As of 6:15 AM on Thursday 23 Oct 2014 (Local Time) from KSFM Reporting Station
Overcast Overcast  
Wind Chill: 39°   Ceiling: 1000
Heat Index: 46°   Visibility: 4mi
Dew Point: 41°   Wind: 21mph
Humidity: 81%   Direction: 20°NNE
Pressure: 29.78"   Gusts: 36mph
Location:  43.5°N, 70.96°W
Report Text: KSFM 231015Z AUTO 02018G31KT 4SM OVC010 08/05 A2978 RMK AO1
Loading
Personal Weather Stations






























Interactive Weather Map
Tropical Storm Tracking
New forecast layout! Learn more

10-Day Weather Forecast

Advertisements
Track Severe Weather on mobile